createdAt,value
2022-10-15T00:01:57.212Z,8.97
2022-10-15T00:04:44.165Z,8.93
2022-10-15T00:07:24.362Z,8.89
2022-10-15T00:10:11.365Z,8.87
2022-10-15T00:12:44.243Z,8.83
2022-10-15T00:15:31.152Z,8.84
2022-10-15T00:18:07.249Z,8.86
2022-10-15T00:20:54.166Z,8.81
2022-10-15T00:23:27.244Z,8.77
2022-10-15T00:26:19.171Z,8.74
2022-10-15T00:28:53.287Z,8.71
2022-10-15T00:31:40.190Z,8.71
2022-10-15T00:34:46.161Z,8.71
2022-10-15T00:37:40.178Z,8.70
2022-10-15T00:40:28.165Z,8.66
2022-10-15T00:43:08.157Z,8.64
2022-10-15T00:46:02.176Z,8.58
2022-10-15T00:48:57.238Z,8.51
2022-10-15T00:51:49.188Z,8.47
2022-10-15T00:54:30.178Z,8.46
2022-10-15T00:57:25.192Z,8.45
2022-10-15T01:00:16.169Z,8.42
2022-10-15T01:02:51.232Z,8.42
2022-10-15T01:05:39.181Z,8.42
2022-10-15T01:08:12.242Z,8.40
2022-10-15T01:11:11.230Z,8.37
2022-10-15T01:14:01.190Z,8.37
2022-10-15T01:17:29.218Z,8.37
2022-10-15T01:20:30.188Z,8.38
2022-10-15T01:23:35.194Z,8.35
2022-10-15T01:26:33.253Z,8.34
2022-10-15T01:29:55.215Z,8.34
2022-10-15T01:32:36.271Z,8.35
2022-10-15T01:35:55.204Z,8.32
2022-10-15T01:38:57.183Z,8.34
2022-10-15T01:42:06.210Z,8.33
2022-10-15T01:45:16.197Z,8.29
2022-10-15T01:48:08.179Z,8.30
2022-10-15T01:50:58.212Z,8.31
2022-10-15T01:53:47.200Z,8.31
2022-10-15T01:56:27.269Z,8.32
2022-10-15T01:59:16.198Z,8.32
2022-10-15T02:01:50.293Z,8.32
2022-10-15T02:04:38.209Z,8.33
2022-10-15T02:07:21.204Z,8.32
2022-10-15T02:10:11.216Z,8.29
2022-10-15T02:13:12.225Z,8.26
2022-10-15T02:16:17.295Z,8.25
2022-10-15T02:19:22.208Z,8.24
2022-10-15T02:22:02.283Z,8.23
2022-10-15T02:25:04.209Z,8.18
2022-10-15T02:27:46.224Z,8.15
2022-10-15T02:30:41.217Z,8.13
2022-10-15T02:33:38.221Z,8.11
2022-10-15T02:36:33.216Z,8.09
2022-10-15T02:39:34.208Z,8.08
2022-10-15T02:42:24.462Z,8.09
2022-10-15T02:45:05.222Z,8.09
2022-10-15T02:47:52.240Z,8.06
2022-10-15T02:50:25.294Z,8.06
2022-10-15T02:53:13.223Z,8.07
2022-10-15T02:55:53.225Z,8.06
2022-10-15T02:58:47.234Z,8.04
2022-10-15T03:01:41.232Z,8.03
2022-10-15T03:04:28.230Z,8.01
2022-10-15T03:07:01.322Z,8.02
2022-10-15T03:09:48.242Z,8.01
2022-10-15T03:12:30.234Z,8.00
2022-10-15T03:15:17.251Z,8.00
2022-10-15T03:17:50.315Z,7.98
2022-10-15T03:20:37.261Z,7.98
2022-10-15T03:23:10.314Z,7.98
2022-10-15T03:25:57.227Z,7.99
2022-10-15T03:28:30.373Z,7.98
2022-10-15T03:31:17.241Z,8.01
2022-10-15T03:33:57.259Z,8.03
2022-10-15T03:36:51.246Z,8.05
2022-10-15T03:39:38.261Z,8.05
2022-10-15T03:42:11.322Z,8.03
2022-10-15T03:44:58.248Z,7.99
2022-10-15T03:47:31.331Z,7.98
2022-10-15T03:50:18.303Z,7.97
2022-10-15T03:52:51.340Z,7.98
2022-10-15T03:55:39.246Z,7.98
2022-10-15T03:58:19.236Z,7.98
2022-10-15T04:01:13.346Z,7.96
2022-10-15T04:04:00.252Z,7.99
2022-10-15T04:06:34.540Z,7.99
2022-10-15T04:09:21.256Z,8.00
2022-10-15T04:12:01.292Z,8.00
2022-10-15T04:14:55.271Z,8.00
2022-10-15T04:17:49.309Z,7.99
2022-10-15T04:20:43.254Z,7.95
2022-10-15T04:23:37.266Z,7.94
2022-10-15T04:26:31.262Z,7.93
2022-10-15T04:29:18.264Z,7.92
2022-10-15T04:31:51.380Z,7.92
2022-10-15T04:34:46.255Z,7.91
2022-10-15T04:37:33.263Z,7.88
2022-10-15T04:40:06.361Z,7.83
2022-10-15T04:42:53.297Z,7.80
2022-10-15T04:45:26.361Z,7.80
2022-10-15T04:48:13.276Z,7.80
2022-10-15T04:50:53.261Z,7.82
2022-10-15T04:53:40.277Z,7.80
2022-10-15T04:56:19.171Z,7.82
2022-10-15T04:59:06.290Z,7.82
2022-10-15T05:01:39.344Z,7.85
2022-10-15T05:04:26.298Z,7.87
2022-10-15T05:07:06.281Z,7.89
2022-10-15T05:10:00.287Z,7.93
2022-10-15T05:12:49.297Z,7.96
2022-10-15T05:15:31.282Z,7.99
2022-10-15T05:18:18.291Z,8.03
2022-10-15T05:20:58.298Z,8.05
2022-10-15T05:23:45.309Z,8.10
2022-10-15T05:26:28.279Z,8.11
2022-10-15T05:29:22.352Z,8.13
2022-10-15T05:32:09.333Z,8.18
2022-10-15T05:34:42.351Z,8.21
2022-10-15T05:37:29.319Z,8.23
2022-10-15T05:40:02.740Z,8.27
2022-10-15T05:42:49.347Z,8.29
2022-10-15T05:45:22.463Z,8.32
2022-10-15T05:48:09.297Z,8.35
2022-10-15T05:50:49.305Z,8.38
2022-10-15T05:53:43.313Z,8.40
2022-10-15T05:56:37.323Z,8.45
2022-10-15T05:59:24.315Z,8.50
2022-10-15T06:01:57.409Z,8.60
2022-10-15T06:04:44.305Z,8.71
2022-10-15T06:07:24.553Z,8.82
2022-10-15T06:10:12.306Z,8.91
2022-10-15T06:12:52.302Z,8.95
2022-10-15T06:15:40.322Z,8.97
2022-10-15T06:18:22.319Z,8.99
2022-10-15T06:21:16.305Z,9.02
2022-10-15T06:24:06.285Z,9.12
2022-10-15T06:26:42.379Z,9.24
2022-10-15T06:29:29.325Z,9.34
2022-10-15T06:32:02.401Z,9.46
2022-10-15T06:34:56.311Z,9.59
2022-10-15T06:37:43.324Z,9.76
2022-10-15T06:40:17.400Z,9.89
2022-10-15T06:43:17.330Z,10.03
2022-10-15T06:45:50.400Z,10.18
2022-10-15T06:48:37.403Z,10.29
2022-10-15T06:51:11.400Z,10.41
2022-10-15T06:53:58.326Z,10.52
2022-10-15T06:56:31.441Z,10.63
2022-10-15T06:59:18.331Z,10.73
2022-10-15T07:01:58.340Z,10.83
2022-10-15T07:04:45.326Z,10.96
2022-10-15T07:07:18.402Z,11.13
2022-10-15T07:10:05.327Z,11.26
2022-10-15T07:12:38.417Z,11.42
2022-10-15T07:15:25.346Z,11.56
2022-10-15T07:18:10.341Z,11.67
2022-10-15T07:20:57.402Z,11.82
2022-10-15T07:23:37.361Z,11.95
2022-10-15T07:26:31.337Z,12.05
2022-10-15T07:29:25.361Z,12.16
2022-10-15T07:32:19.337Z,12.28
2022-10-15T07:35:13.347Z,12.36
2022-10-15T07:38:07.359Z,12.39
2022-10-15T07:40:54.370Z,12.41
2022-10-15T07:43:28.008Z,12.45
2022-10-15T07:46:14.335Z,12.47
2022-10-15T07:48:47.447Z,12.50
2022-10-15T07:51:34.339Z,12.53
2022-10-15T07:54:07.438Z,12.60
2022-10-15T07:56:54.356Z,12.71
2022-10-15T07:59:27.426Z,12.81
2022-10-15T08:02:22.704Z,12.91
2022-10-15T08:05:03.360Z,13.06
2022-10-15T08:07:58.137Z,13.17
2022-10-15T08:10:44.356Z,13.28
2022-10-15T08:13:24.377Z,13.36
2022-10-15T08:16:11.356Z,13.43
2022-10-15T08:18:45.451Z,13.50
2022-10-15T08:21:32.377Z,13.54
2022-10-15T08:24:06.000Z,13.63
2022-10-15T08:26:52.386Z,13.68
2022-10-15T08:29:25.479Z,13.75
2022-10-15T08:32:12.360Z,13.90
2022-10-15T08:34:52.388Z,14.02
2022-10-15T08:37:39.390Z,14.14
2022-10-15T08:40:20.405Z,14.24
2022-10-15T08:43:07.380Z,14.33
2022-10-15T08:45:48.925Z,14.46
2022-10-15T08:48:39.398Z,14.54
2022-10-15T08:51:17.457Z,14.70
2022-10-15T08:54:12.397Z,14.79
2022-10-15T08:56:49.467Z,14.88
2022-10-15T08:59:56.397Z,14.94
2022-10-15T09:02:54.416Z,15.04
2022-10-15T09:05:50.404Z,15.14
2022-10-15T09:08:35.459Z,15.19
2022-10-15T09:11:30.419Z,15.16
2022-10-15T09:14:04.667Z,15.17
2022-10-15T09:16:54.404Z,15.18
2022-10-15T09:19:32.511Z,15.22
2022-10-15T09:22:24.434Z,15.23
2022-10-15T09:25:04.443Z,15.20
2022-10-15T09:28:00.443Z,15.09
2022-10-15T09:31:03.423Z,15.03
2022-10-15T09:33:49.514Z,15.03
2022-10-15T09:36:48.451Z,15.01
2022-10-15T09:39:46.763Z,15.03
2022-10-15T09:42:43.456Z,15.09
2022-10-15T09:45:26.454Z,15.16
2022-10-15T09:48:31.445Z,15.14
2022-10-15T09:51:40.416Z,15.13
2022-10-15T09:54:25.491Z,15.19
2022-10-15T09:57:17.459Z,15.23
2022-10-15T10:00:01.889Z,15.23
2022-10-15T10:02:48.435Z,15.23
2022-10-15T10:05:33.552Z,15.25
2022-10-15T10:08:23.406Z,15.28
2022-10-15T10:11:15.424Z,15.36
2022-10-15T10:14:12.430Z,15.45
2022-10-15T10:17:22.447Z,15.52
2022-10-15T10:20:23.439Z,15.50
2022-10-15T10:22:57.542Z,15.54
2022-10-15T10:25:49.447Z,15.52
2022-10-15T10:28:43.502Z,15.52
2022-10-15T10:31:48.451Z,15.51
2022-10-15T10:34:24.548Z,15.49
2022-10-15T10:37:13.449Z,15.41
2022-10-15T10:39:48.522Z,15.43
2022-10-15T10:42:44.468Z,15.32
2022-10-15T10:45:30.015Z,15.27
2022-10-15T10:48:28.436Z,15.25
2022-10-15T10:51:19.037Z,15.16
2022-10-15T10:54:12.445Z,15.14
2022-10-15T10:56:56.458Z,15.15
2022-10-15T11:00:00.446Z,15.18
2022-10-15T11:02:54.474Z,15.16
2022-10-15T11:05:46.453Z,15.09
2022-10-15T11:08:31.656Z,15.03
2022-10-15T11:11:30.465Z,15.03
2022-10-15T11:14:38.530Z,15.01
2022-10-15T11:17:46.482Z,15.07
2022-10-15T11:20:36.237Z,15.01
2022-10-15T11:23:46.464Z,14.97
2022-10-15T11:27:09.608Z,14.96
2022-10-15T11:30:09.639Z,14.96
2022-10-15T11:33:19.452Z,14.95
2022-10-15T11:36:07.559Z,14.99
2022-10-15T11:39:23.470Z,15.03
2022-10-15T11:42:25.931Z,15.02
2022-10-15T11:45:29.471Z,15.01
2022-10-15T11:48:40.491Z,15.02
2022-10-15T11:51:39.541Z,15.05
2022-10-15T11:54:43.501Z,15.04
2022-10-15T11:57:28.475Z,14.97
2022-10-15T12:00:39.493Z,14.89
2022-10-15T12:03:25.558Z,14.86
2022-10-15T12:06:18.481Z,14.80
2022-10-15T12:09:01.497Z,14.77
2022-10-15T12:12:22.841Z,14.68
2022-10-15T12:15:35.507Z,14.66
2022-10-15T12:18:22.486Z,14.63
2022-10-15T12:21:16.497Z,14.58
2022-10-15T12:24:03.499Z,14.52
2022-10-15T12:26:41.567Z,14.51
2022-10-15T12:29:33.494Z,14.54
2022-10-15T12:32:06.561Z,14.56
2022-10-15T12:34:53.505Z,14.59
2022-10-15T12:37:37.510Z,14.60
2022-10-15T12:40:40.554Z,14.64
2022-10-15T12:43:34.491Z,14.67
2022-10-15T12:46:21.525Z,14.67
2022-10-15T12:48:58.198Z,14.67
2022-10-15T12:51:44.509Z,14.71
2022-10-15T12:54:44.579Z,14.71
2022-10-15T12:57:37.536Z,14.75
2022-10-15T13:00:41.595Z,14.74
2022-10-15T13:03:44.522Z,14.73
2022-10-15T13:06:33.525Z,14.75
2022-10-15T13:09:44.525Z,14.72
2022-10-15T13:12:35.515Z,14.76
2022-10-15T13:15:19.520Z,14.77
2022-10-15T13:18:21.512Z,14.77
2022-10-15T13:21:11.402Z,14.78
2022-10-15T13:23:53.594Z,14.79
2022-10-15T13:26:40.523Z,14.79
2022-10-15T13:29:28.529Z,14.79
2022-10-15T13:32:21.819Z,14.79
2022-10-15T13:34:57.465Z,14.77
2022-10-15T13:37:46.510Z,14.76
2022-10-15T13:40:34.551Z,14.72
2022-10-15T13:43:39.535Z,14.71
2022-10-15T13:46:33.564Z,14.63
2022-10-15T13:49:28.926Z,14.58
2022-10-15T13:52:22.905Z,14.56
2022-10-15T13:55:09.533Z,14.51
2022-10-15T13:57:49.570Z,14.49
2022-10-15T14:00:40.627Z,14.47
2022-10-15T14:03:25.650Z,14.45
2022-10-15T14:06:29.559Z,14.40
2022-10-15T14:09:21.042Z,14.40
2022-10-15T14:12:08.553Z,14.41
2022-10-15T14:14:46.987Z,14.41
2022-10-15T14:17:33.566Z,14.37
2022-10-15T14:20:27.576Z,14.35
2022-10-15T14:23:22.537Z,14.32
2022-10-15T14:26:00.730Z,14.31
2022-10-15T14:28:41.611Z,14.31
2022-10-15T14:31:39.564Z,14.29
2022-10-15T14:34:44.618Z,14.29
2022-10-15T14:37:43.577Z,14.25
2022-10-15T14:40:16.664Z,14.26
2022-10-15T14:43:21.613Z,14.23
2022-10-15T14:45:57.658Z,14.23
2022-10-15T14:48:45.571Z,14.22
2022-10-15T14:51:36.573Z,14.19
2022-10-15T14:54:39.567Z,14.15
2022-10-15T14:57:31.596Z,14.17
2022-10-15T15:00:05.708Z,14.17
2022-10-15T15:02:52.636Z,14.14
2022-10-15T15:06:03.574Z,14.13
2022-10-15T15:08:57.610Z,14.12
2022-10-15T15:11:44.594Z,14.12
2022-10-15T15:14:39.564Z,14.09
2022-10-15T15:17:28.587Z,14.06
2022-10-15T15:22:51.606Z,13.98
2022-10-15T15:25:41.585Z,13.95
2022-10-15T15:28:38.656Z,13.93
2022-10-15T15:31:25.586Z,13.89
2022-10-15T15:34:05.590Z,13.86
2022-10-15T15:36:52.611Z,13.80
2022-10-15T15:39:32.599Z,13.77
2022-10-15T15:42:25.863Z,13.72
2022-10-15T15:44:59.665Z,13.68
2022-10-15T15:47:46.595Z,13.63
2022-10-15T15:50:20.693Z,13.59
2022-10-15T15:53:07.602Z,13.54
2022-10-15T15:55:47.660Z,13.50
2022-10-15T15:58:41.611Z,13.44
2022-10-15T16:01:35.650Z,13.36
2022-10-15T16:04:22.609Z,13.30
2022-10-15T16:06:55.677Z,13.26
2022-10-15T16:09:42.633Z,13.23
2022-10-15T16:12:15.746Z,13.20
2022-10-15T16:15:02.626Z,13.15
2022-10-15T16:17:35.771Z,13.12
2022-10-15T16:20:22.608Z,13.11
2022-10-15T16:22:57.736Z,13.09
2022-10-15T16:25:44.610Z,13.06
2022-10-15T16:28:17.720Z,13.03
2022-10-15T16:31:39.621Z,12.99
2022-10-15T16:34:19.635Z,12.97
2022-10-15T16:37:13.625Z,12.95
2022-10-15T16:40:07.709Z,12.90
2022-10-15T16:42:54.629Z,12.87
2022-10-15T16:45:27.686Z,12.84
2022-10-15T16:48:14.641Z,12.82
2022-10-15T16:50:47.762Z,12.80
2022-10-15T16:53:34.648Z,12.78
2022-10-15T16:56:16.781Z,12.74
2022-10-15T16:59:03.635Z,12.72
2022-10-15T17:01:36.997Z,12.68
2022-10-15T17:04:23.637Z,12.63
2022-10-15T17:07:03.648Z,12.60
2022-10-15T17:09:57.649Z,12.56
2022-10-15T17:12:44.584Z,12.51
2022-10-15T17:15:24.658Z,12.46
2022-10-15T17:18:18.628Z,12.41
2022-10-15T17:21:12.645Z,12.39
2022-10-15T17:24:01.631Z,12.34
2022-10-15T17:26:44.659Z,12.32
2022-10-15T17:29:38.657Z,12.30
2022-10-15T17:32:25.916Z,12.28
2022-10-15T17:35:03.793Z,12.27
2022-10-15T17:37:51.643Z,12.23
2022-10-15T17:40:24.765Z,12.21
2022-10-15T17:43:11.649Z,12.18
2022-10-15T17:45:44.733Z,12.17
2022-10-15T17:48:31.660Z,12.15
2022-10-15T17:51:08.767Z,12.11
2022-10-15T17:53:57.661Z,12.09
2022-10-15T17:56:36.790Z,12.06
2022-10-15T17:59:23.675Z,12.04
2022-10-15T18:02:04.743Z,12.02
2022-10-15T18:04:58.650Z,12.02
2022-10-15T18:07:52.674Z,12.01
2022-10-15T18:10:49.679Z,12.03
2022-10-15T18:13:36.684Z,12.05
2022-10-15T18:16:09.758Z,12.03
2022-10-15T18:18:56.707Z,12.04
2022-10-15T18:21:31.738Z,12.04
2022-10-15T18:24:18.658Z,12.05
2022-10-15T18:27:01.680Z,12.06
2022-10-15T18:29:55.683Z,12.06
2022-10-15T18:32:42.693Z,12.04
2022-10-15T18:35:15.738Z,12.04
2022-10-15T18:38:02.700Z,12.00
2022-10-15T18:40:46.706Z,11.99
2022-10-15T18:43:40.678Z,11.97
2022-10-15T18:46:27.685Z,11.96
2022-10-15T18:49:08.685Z,11.95
2022-10-15T18:52:06.405Z,11.90
2022-10-15T18:54:48.797Z,11.86
2022-10-15T18:57:35.693Z,11.80
2022-10-15T19:00:15.764Z,11.78
2022-10-15T19:03:09.671Z,11.74
2022-10-15T19:05:57.697Z,11.65
2022-10-15T19:08:31.166Z,11.59
2022-10-15T19:11:17.696Z,11.50
2022-10-15T19:13:50.759Z,11.41
2022-10-15T19:16:37.700Z,11.36
2022-10-15T19:19:12.545Z,11.31
2022-10-15T19:21:59.703Z,11.26
2022-10-15T19:24:32.785Z,11.20
2022-10-15T19:27:19.702Z,11.14
2022-10-15T19:29:59.715Z,11.05
2022-10-15T19:32:53.695Z,10.97
2022-10-15T19:35:56.702Z,10.89
2022-10-15T19:38:43.713Z,10.84
2022-10-15T19:41:16.779Z,10.80
2022-10-15T19:44:03.720Z,10.73
2022-10-15T19:46:43.718Z,10.67
2022-10-15T19:49:39.151Z,10.59
2022-10-15T19:52:35.239Z,10.53
2022-10-15T19:55:21.718Z,10.50
2022-10-15T19:57:55.837Z,10.43
2022-10-15T20:00:42.712Z,10.38
2022-10-15T20:03:22.769Z,10.37
2022-10-15T20:06:13.721Z,10.31
2022-10-15T20:08:46.847Z,10.29
2022-10-15T20:11:33.718Z,10.26
2022-10-15T20:14:13.717Z,10.23
2022-10-15T20:17:00.739Z,10.18
2022-10-15T20:19:33.801Z,10.14
2022-10-15T20:22:20.754Z,10.09
2022-10-15T20:25:03.739Z,10.07
2022-10-15T20:27:50.721Z,10.07
2022-10-15T20:30:23.827Z,10.07
2022-10-15T20:33:26.727Z,10.04
2022-10-15T20:36:23.870Z,10.07
2022-10-15T20:39:17.735Z,10.08
2022-10-15T20:42:04.756Z,10.08
2022-10-15T20:44:47.740Z,10.08
2022-10-15T20:47:41.732Z,10.07
2022-10-15T20:50:34.741Z,10.07
2022-10-15T20:53:15.741Z,10.08
2022-10-15T20:56:09.741Z,10.09
2022-10-15T20:58:56.751Z,10.09
2022-10-15T21:01:29.865Z,10.09
2022-10-15T21:04:16.745Z,10.07
2022-10-15T21:06:56.745Z,10.07
2022-10-15T21:09:43.749Z,10.04
2022-10-15T21:12:24.956Z,9.97
2022-10-15T21:15:11.766Z,9.95
2022-10-15T21:17:44.828Z,9.92
2022-10-15T21:20:33.761Z,9.87
2022-10-15T21:23:06.819Z,9.82
2022-10-15T21:25:53.736Z,9.77
2022-10-15T21:28:33.837Z,9.73
2022-10-15T21:31:23.743Z,9.68
2022-10-15T21:34:03.779Z,9.66
2022-10-15T21:36:50.776Z,9.62
2022-10-15T21:39:30.744Z,9.58
2022-10-15T21:42:24.761Z,9.54
2022-10-15T21:45:18.746Z,9.47
2022-10-15T21:48:12.759Z,9.43
2022-10-15T21:50:59.772Z,9.39
2022-10-15T21:53:32.954Z,9.36
2022-10-15T21:56:19.783Z,9.36
2022-10-15T21:58:54.428Z,9.36
2022-10-15T22:01:42.847Z,9.39
2022-10-15T22:04:24.769Z,9.41
2022-10-15T22:07:18.788Z,9.42
2022-10-15T22:10:05.768Z,9.44
2022-10-15T22:12:38.913Z,9.44
2022-10-15T22:15:25.782Z,9.45
2022-10-15T22:17:58.849Z,9.45
2022-10-15T22:20:45.788Z,9.47
2022-10-15T22:23:27.772Z,9.49
2022-10-15T22:26:21.809Z,9.48
2022-10-15T22:29:17.806Z,9.49
2022-10-15T22:32:11.810Z,9.51
2022-10-15T22:35:05.775Z,9.53
2022-10-15T22:37:52.768Z,9.56
2022-10-15T22:40:32.788Z,9.57
2022-10-15T22:43:26.782Z,9.53
2022-10-15T22:46:13.790Z,9.53
2022-10-15T22:48:53.623Z,9.53
2022-10-15T22:51:40.820Z,9.53
2022-10-15T22:54:13.889Z,9.49
2022-10-15T22:57:00.790Z,9.44
2022-10-15T22:59:33.921Z,9.41
2022-10-15T23:02:21.789Z,9.35
2022-10-15T23:04:54.887Z,9.32
2022-10-15T23:07:41.804Z,9.28
2022-10-15T23:10:15.897Z,9.27
2022-10-15T23:13:02.815Z,9.25
2022-10-15T23:15:35.867Z,9.21
2022-10-15T23:18:22.820Z,9.17
2022-10-15T23:21:02.819Z,9.13
2022-10-15T23:23:57.801Z,9.11
2022-10-15T23:26:52.822Z,9.09
2022-10-15T23:29:39.814Z,9.06
2022-10-15T23:32:12.885Z,9.00
2022-10-15T23:35:06.796Z,8.95
2022-10-15T23:37:53.877Z,8.90
2022-10-15T23:40:26.907Z,8.82
2022-10-15T23:43:13.816Z,8.77
2022-10-15T23:45:47.891Z,8.74
2022-10-15T23:48:34.817Z,8.72
2022-10-15T23:51:14.823Z,8.71
2022-10-15T23:54:10.857Z,8.70
2022-10-15T23:56:57.853Z,8.68
2022-10-15T23:59:37.824Z,8.69
